createdAt,value
2023-05-04T00:00:08.061Z,4.05
2023-05-04T00:02:34.794Z,3.70
2023-05-04T00:05:01.753Z,4.10
2023-05-04T00:07:30.553Z,3.90
2023-05-04T00:09:57.053Z,3.92
2023-05-04T00:12:23.532Z,3.88
2023-05-04T00:14:50.035Z,3.92
2023-05-04T00:17:16.876Z,4.47
2023-05-04T00:19:44.700Z,3.88
2023-05-04T00:22:11.486Z,4.13
2023-05-04T00:24:38.689Z,4.50
2023-05-04T00:27:05.209Z,3.92
2023-05-04T00:29:31.808Z,3.90
2023-05-04T00:31:58.423Z,4.20
2023-05-04T00:34:24.942Z,4.53
2023-05-04T00:36:51.460Z,4.18
2023-05-04T00:39:18.113Z,4.35
2023-05-04T00:41:45.754Z,4.40
2023-05-04T00:44:12.576Z,4.28
2023-05-04T00:46:39.156Z,4.50
2023-05-04T00:49:06.501Z,4.43
2023-05-04T00:51:33.562Z,3.90
2023-05-04T00:54:00.251Z,4.38
2023-05-04T00:56:28.875Z,4.38
2023-05-04T00:58:57.788Z,4.32
2023-05-04T01:01:24.736Z,4.80
2023-05-04T01:03:52.082Z,4.13
2023-05-04T01:06:37.590Z,4.45
2023-05-04T01:09:07.242Z,4.40
2023-05-04T01:11:46.710Z,4.43
2023-05-04T01:14:14.434Z,4.25
2023-05-04T01:16:41.064Z,4.25
2023-05-04T01:19:07.678Z,4.57
2023-05-04T01:21:35.594Z,4.45
2023-05-04T01:24:02.201Z,4.47
2023-05-04T01:26:30.780Z,4.43
2023-05-04T01:29:03.374Z,4.45
2023-05-04T01:31:30.027Z,4.40
2023-05-04T01:33:57.069Z,4.40
2023-05-04T01:36:23.826Z,4.30
2023-05-04T01:38:53.641Z,4.75
2023-05-04T01:41:21.425Z,4.38
2023-05-04T01:43:48.597Z,4.63
2023-05-04T01:46:15.390Z,4.70
2023-05-04T01:48:45.336Z,4.95
2023-05-04T01:51:11.902Z,4.40
2023-05-04T01:53:38.402Z,4.60
2023-05-04T01:56:04.979Z,4.65
2023-05-04T01:58:32.112Z,4.90
2023-05-04T02:01:01.584Z,4.97
2023-05-04T02:03:28.246Z,4.90
2023-05-04T02:05:54.822Z,4.65
2023-05-04T02:08:21.362Z,5.28
2023-05-04T02:10:48.272Z,4.72
2023-05-04T02:13:14.926Z,5.10
2023-05-04T02:15:41.564Z,5.00
2023-05-04T02:18:08.303Z,4.97
2023-05-04T02:20:34.900Z,4.65
2023-05-04T02:23:01.368Z,4.30
2023-05-04T02:25:27.862Z,5.03
2023-05-04T02:27:54.422Z,4.75
2023-05-04T02:30:21.005Z,4.45
2023-05-04T02:32:47.617Z,4.88
2023-05-04T02:35:15.151Z,5.18
2023-05-04T02:37:41.676Z,6.93
2023-05-04T02:40:08.535Z,5.10
2023-05-04T02:42:35.179Z,5.15
2023-05-04T02:45:01.667Z,5.20
2023-05-04T02:47:28.201Z,4.40
2023-05-04T02:49:54.767Z,4.88
2023-05-04T02:52:21.269Z,4.95
2023-05-04T02:54:47.763Z,4.85
2023-05-04T02:57:14.256Z,4.32
2023-05-04T02:59:40.752Z,4.63
2023-05-04T03:02:07.248Z,4.97
2023-05-04T03:04:33.929Z,4.55
2023-05-04T03:07:00.748Z,5.00
2023-05-04T03:09:27.262Z,5.35
2023-05-04T03:11:53.799Z,5.20
2023-05-04T03:14:20.346Z,4.93
2023-05-04T03:16:47.430Z,5.60
2023-05-04T03:19:14.028Z,5.43
2023-05-04T03:21:40.497Z,5.68
2023-05-04T03:24:07.112Z,5.20
2023-05-04T03:26:33.650Z,5.63
2023-05-04T03:29:00.243Z,5.28
2023-05-04T03:31:27.062Z,5.65
2023-05-04T03:33:53.861Z,6.05
2023-05-04T03:36:21.274Z,5.53
2023-05-04T03:38:48.588Z,5.93
2023-05-04T03:41:15.487Z,6.18
2023-05-04T03:43:42.212Z,6.30
2023-05-04T03:46:09.471Z,6.20
2023-05-04T03:48:38.722Z,5.68
2023-05-04T03:51:09.018Z,6.22
2023-05-04T03:53:35.843Z,6.00
2023-05-04T03:56:03.339Z,5.88
2023-05-04T03:58:31.047Z,5.93
2023-05-04T04:01:03.749Z,5.55
2023-05-04T04:03:31.590Z,5.50
2023-05-04T04:05:58.261Z,5.25
2023-05-04T04:08:26.241Z,5.78
2023-05-04T04:10:52.784Z,5.32
2023-05-04T04:13:19.350Z,5.45
2023-05-04T04:15:48.905Z,5.55
2023-05-04T04:18:15.501Z,6.18
2023-05-04T04:20:42.061Z,5.43
2023-05-04T04:23:08.613Z,6.15
2023-05-04T04:25:35.168Z,5.80
2023-05-04T04:28:01.750Z,5.90
2023-05-04T04:30:28.322Z,5.60
2023-05-04T04:32:57.150Z,4.85
2023-05-04T04:35:23.936Z,5.35
2023-05-04T04:37:51.159Z,5.65
2023-05-04T04:40:18.164Z,5.32
2023-05-04T04:42:44.738Z,6.32
2023-05-04T04:45:11.415Z,6.00
2023-05-04T04:47:40.181Z,5.53
2023-05-04T04:50:07.148Z,5.97
2023-05-04T04:52:34.703Z,5.60
2023-05-04T04:55:04.490Z,5.50
2023-05-04T04:57:31.918Z,6.20
2023-05-04T04:59:58.561Z,5.85
2023-05-04T05:02:25.103Z,5.53
2023-05-04T05:04:51.620Z,5.70
2023-05-04T05:07:18.224Z,5.57
2023-05-04T05:09:44.725Z,5.35
2023-05-04T05:12:11.194Z,5.05
2023-05-04T05:14:37.956Z,5.10
2023-05-04T05:17:04.565Z,5.05
2023-05-04T05:19:34.121Z,4.88
2023-05-04T05:22:00.609Z,4.53
2023-05-04T05:24:27.126Z,4.15
2023-05-04T05:26:53.623Z,3.83
2023-05-04T05:29:20.169Z,3.92
2023-05-04T05:31:46.809Z,4.10
2023-05-04T05:34:13.373Z,4.07
2023-05-04T05:36:39.952Z,3.90
2023-05-04T05:39:06.481Z,4.05
2023-05-04T05:41:33.034Z,3.75
2023-05-04T05:43:59.640Z,4.22
2023-05-04T05:46:28.031Z,4.35
2023-05-04T05:48:54.803Z,4.30
2023-05-04T05:51:21.343Z,4.13
2023-05-04T05:53:47.911Z,3.70
2023-05-04T05:56:14.838Z,3.78
2023-05-04T05:58:41.646Z,3.40
2023-05-04T06:01:08.242Z,3.63
2023-05-04T06:03:34.972Z,3.50
2023-05-04T06:06:01.522Z,3.10
2023-05-04T06:08:28.027Z,3.10
2023-05-04T06:10:56.326Z,3.05
2023-05-04T06:13:22.805Z,3.33
2023-05-04T06:15:52.943Z,2.95
2023-05-04T06:18:20.372Z,2.92
2023-05-04T06:20:46.854Z,2.72
2023-05-04T06:23:14.756Z,3.03
2023-05-04T06:25:43.613Z,3.15
2023-05-04T06:28:10.188Z,3.05
2023-05-04T06:30:36.941Z,2.72
2023-05-04T06:33:04.481Z,2.78
2023-05-04T06:35:31.503Z,3.20
2023-05-04T06:37:58.492Z,2.92
2023-05-04T06:40:26.082Z,3.28
2023-05-04T06:42:52.660Z,2.90
2023-05-04T06:45:19.240Z,2.80
2023-05-04T06:47:46.102Z,2.58
2023-05-04T06:50:15.111Z,2.80
2023-05-04T06:52:43.751Z,2.45
2023-05-04T06:55:10.598Z,2.83
2023-05-04T06:57:37.196Z,2.60
2023-05-04T07:00:04.632Z,2.30
2023-05-04T07:02:31.417Z,3.88
2023-05-04T07:04:58.022Z,2.80
2023-05-04T07:07:25.140Z,3.85
2023-05-04T07:09:51.646Z,3.17
2023-05-04T07:12:18.609Z,3.95
2023-05-04T07:14:45.239Z,3.28
2023-05-04T07:17:11.873Z,7.25
2023-05-04T07:19:38.380Z,4.00
2023-05-04T07:22:07.344Z,2.60
2023-05-04T07:24:33.858Z,2.55
2023-05-04T07:27:02.268Z,2.60
2023-05-04T07:29:28.809Z,2.40
2023-05-04T07:31:55.927Z,2.70
2023-05-04T07:34:27.667Z,2.92
2023-05-04T07:37:00.767Z,2.78
2023-05-04T07:39:27.294Z,2.40
2023-05-04T07:41:54.977Z,2.78
2023-05-04T07:44:21.987Z,2.30
2023-05-04T07:46:48.466Z,2.50
2023-05-04T07:49:14.986Z,2.72
2023-05-04T07:51:41.644Z,2.55
2023-05-04T07:54:08.198Z,2.30
2023-05-04T07:56:34.953Z,2.30
2023-05-04T07:59:01.522Z,2.45
2023-05-04T08:01:28.008Z,2.42
2023-05-04T08:03:54.537Z,2.33
2023-05-04T08:06:21.942Z,2.30
2023-05-04T08:08:52.003Z,2.38
2023-05-04T08:11:20.981Z,2.35
2023-05-04T08:13:50.626Z,2.72
2023-05-04T08:16:17.241Z,2.70
2023-05-04T08:18:43.803Z,2.30
2023-05-04T08:21:10.624Z,2.38
2023-05-04T08:23:37.216Z,2.22
2023-05-04T08:26:04.228Z,2.40
2023-05-04T08:28:31.138Z,2.08
2023-05-04T08:30:57.923Z,2.25
2023-05-04T08:33:24.435Z,2.08
2023-05-04T08:35:51.470Z,2.42
2023-05-04T08:38:17.963Z,2.35
2023-05-04T08:40:47.391Z,2.33
2023-05-04T08:43:14.633Z,2.22
2023-05-04T08:45:41.218Z,2.65
2023-05-04T08:48:08.323Z,2.15
2023-05-04T08:50:35.740Z,1.95
2023-05-04T08:53:05.607Z,2.42
2023-05-04T08:55:33.321Z,2.35
2023-05-04T08:58:01.293Z,2.30
2023-05-04T09:00:28.471Z,2.13
2023-05-04T09:02:55.610Z,2.40
2023-05-04T09:05:22.241Z,2.13
2023-05-04T09:07:51.034Z,2.42
2023-05-04T09:10:18.090Z,2.58
2023-05-04T09:12:44.550Z,2.50
2023-05-04T09:15:15.583Z,2.70
2023-05-04T09:17:56.967Z,4.47
2023-05-04T09:20:25.688Z,2.63
2023-05-04T09:23:02.201Z,2.00
2023-05-04T09:25:28.712Z,2.20
2023-05-04T09:27:56.120Z,2.22
2023-05-04T09:30:22.751Z,2.13
2023-05-04T09:32:49.595Z,2.42
2023-05-04T09:35:29.309Z,2.58
2023-05-04T09:39:24.750Z,2.30
2023-05-04T09:41:51.894Z,2.35
2023-05-04T09:44:18.960Z,2.38
2023-05-04T09:46:58.062Z,2.33
2023-05-04T09:49:37.044Z,3.00
2023-05-04T09:52:05.079Z,2.25
2023-05-04T09:54:34.815Z,2.22
2023-05-04T09:57:14.625Z,2.05
2023-05-04T09:59:41.341Z,2.60
2023-05-04T10:02:21.183Z,2.28
2023-05-04T10:04:53.434Z,2.70
2023-05-04T10:07:20.906Z,2.40
2023-05-04T10:09:49.061Z,1.98
2023-05-04T10:12:18.480Z,2.33
2023-05-04T10:14:47.134Z,2.25
2023-05-04T10:17:32.492Z,1.70
2023-05-04T10:20:17.566Z,2.38
2023-05-04T10:22:49.923Z,2.50
2023-05-04T10:25:23.852Z,2.20
2023-05-04T10:28:01.566Z,2.30
2023-05-04T10:30:28.277Z,1.95
2023-05-04T10:32:58.688Z,2.00
2023-05-04T10:35:25.719Z,2.20
2023-05-04T10:37:56.076Z,2.53
2023-05-04T10:40:34.764Z,2.28
2023-05-04T10:43:01.321Z,2.20
2023-05-04T10:45:37.729Z,1.80
2023-05-04T10:48:08.430Z,2.38
2023-05-04T10:50:42.760Z,2.60
2023-05-04T10:53:09.789Z,1.95
2023-05-04T10:55:40.962Z,2.28
2023-05-04T10:58:10.278Z,2.28
2023-05-04T11:00:37.661Z,2.40
2023-05-04T11:03:05.359Z,1.95
2023-05-04T11:05:45.563Z,2.13
2023-05-04T11:08:19.977Z,2.53
2023-05-04T11:10:47.884Z,2.22
2023-05-04T11:13:16.060Z,2.10
2023-05-04T11:15:46.380Z,2.30
2023-05-04T11:18:13.152Z,2.28
2023-05-04T11:20:39.944Z,2.05
2023-05-04T11:23:10.411Z,2.35
2023-05-04T11:25:37.697Z,2.20
2023-05-04T11:28:04.539Z,2.10
2023-05-04T11:30:34.573Z,1.70
2023-05-04T11:33:02.152Z,2.20
2023-05-04T11:35:28.852Z,2.00
2023-05-04T11:37:56.389Z,2.20
2023-05-04T11:40:24.031Z,2.10
2023-05-04T11:42:50.894Z,2.20
2023-05-04T11:45:22.918Z,1.60
2023-05-04T11:47:50.098Z,3.72
2023-05-04T11:50:17.437Z,2.72
2023-05-04T11:52:44.463Z,2.22
2023-05-04T11:55:11.954Z,2.28
2023-05-04T11:57:38.551Z,2.90
2023-05-04T12:00:05.959Z,3.03
2023-05-04T12:02:32.910Z,2.40
2023-05-04T12:04:59.674Z,2.40
2023-05-04T12:07:28.453Z,2.45
2023-05-04T12:09:58.055Z,1.52
2023-05-04T12:12:34.356Z,2.00
2023-05-04T12:15:00.969Z,1.80
2023-05-04T12:17:27.465Z,2.05
2023-05-04T12:19:55.563Z,2.13
2023-05-04T12:22:28.939Z,2.20
2023-05-04T12:24:59.248Z,1.80
2023-05-04T12:27:26.279Z,2.33
2023-05-04T12:29:52.856Z,2.10
2023-05-04T12:32:19.581Z,2.30
2023-05-04T12:34:46.088Z,2.40
2023-05-04T12:37:12.686Z,1.98
2023-05-04T12:39:39.516Z,2.00
2023-05-04T12:42:06.005Z,2.00
2023-05-04T12:44:33.322Z,2.30
2023-05-04T12:46:59.850Z,2.17
2023-05-04T12:49:26.496Z,2.00
2023-05-04T12:51:53.068Z,2.10
2023-05-04T12:54:19.589Z,1.88
2023-05-04T12:56:46.096Z,2.20
2023-05-04T12:59:12.635Z,1.95
2023-05-04T13:01:40.449Z,1.95
2023-05-04T13:04:07.104Z,2.00
2023-05-04T13:06:33.649Z,1.92
2023-05-04T13:09:01.740Z,1.83
2023-05-04T13:11:28.940Z,2.03
2023-05-04T13:13:55.879Z,2.00
2023-05-04T13:16:22.475Z,2.10
2023-05-04T13:18:49.049Z,2.15
2023-05-04T13:21:15.537Z,1.75
2023-05-04T13:23:42.342Z,1.70
2023-05-04T13:26:08.934Z,2.08
2023-05-04T13:28:37.818Z,2.10
2023-05-04T13:31:06.024Z,2.00
2023-05-04T13:33:32.994Z,2.30
2023-05-04T13:36:01.914Z,2.00
2023-05-04T13:38:28.808Z,2.00
2023-05-04T13:40:55.803Z,1.60
2023-05-04T13:43:22.465Z,2.10
2023-05-04T13:45:48.931Z,2.00
2023-05-04T13:48:15.456Z,1.70
2023-05-04T13:50:42.098Z,2.20
2023-05-04T13:53:10.934Z,2.00
2023-05-04T13:55:37.636Z,2.20
2023-05-04T13:58:04.168Z,2.17
2023-05-04T14:00:30.680Z,2.10
2023-05-04T14:02:57.606Z,2.60
2023-05-04T14:05:24.188Z,2.20
2023-05-04T14:07:52.294Z,2.25
2023-05-04T14:10:18.825Z,2.40
2023-05-04T14:12:45.442Z,1.92
2023-05-04T14:15:12.210Z,2.00
2023-05-04T14:17:39.715Z,2.17
2023-05-04T14:20:06.783Z,2.30
2023-05-04T14:22:34.577Z,2.00
2023-05-04T14:25:02.379Z,2.20
2023-05-04T14:27:31.346Z,2.08
2023-05-04T14:29:58.174Z,1.90
2023-05-04T14:32:24.789Z,1.80
2023-05-04T14:34:51.624Z,1.92
2023-05-04T14:37:18.192Z,1.67
2023-05-04T14:39:44.842Z,1.80
2023-05-04T14:42:13.758Z,2.30
2023-05-04T14:44:40.306Z,2.00
2023-05-04T14:47:07.940Z,1.85
2023-05-04T14:49:37.325Z,2.40
2023-05-04T14:52:04.577Z,2.28
2023-05-04T14:54:31.114Z,2.20
2023-05-04T14:56:58.957Z,2.78
2023-05-04T14:59:25.842Z,2.88
2023-05-04T15:01:52.898Z,2.83
2023-05-04T15:04:19.526Z,2.60
2023-05-04T15:06:46.871Z,3.28
2023-05-04T15:09:13.508Z,2.40
2023-05-04T15:11:40.177Z,2.70
2023-05-04T15:14:06.851Z,2.95
2023-05-04T15:16:33.559Z,3.90
2023-05-04T15:19:00.281Z,3.10
2023-05-04T15:21:27.882Z,3.00
2023-05-04T15:23:54.449Z,3.55
2023-05-04T15:26:22.137Z,3.13
2023-05-04T15:28:48.778Z,3.28
2023-05-04T15:31:16.806Z,3.08
2023-05-04T15:33:43.981Z,2.97
2023-05-04T15:36:10.561Z,3.88
2023-05-04T15:38:37.404Z,3.70
2023-05-04T15:41:05.576Z,4.15
2023-05-04T15:43:32.738Z,3.90
2023-05-04T15:45:59.389Z,3.55
2023-05-04T15:48:27.262Z,3.50
2023-05-04T15:50:56.676Z,3.80
2023-05-04T15:53:23.225Z,4.03
2023-05-04T15:55:50.251Z,4.45
2023-05-04T15:58:16.771Z,4.35
2023-05-04T16:00:43.300Z,4.22
2023-05-04T16:03:09.865Z,3.88
2023-05-04T16:05:36.424Z,3.83
2023-05-04T16:08:03.099Z,4.07
2023-05-04T16:10:29.690Z,4.18
2023-05-04T16:12:56.359Z,3.90
2023-05-04T16:15:23.051Z,4.00
2023-05-04T16:17:49.771Z,4.13
2023-05-04T16:20:16.409Z,4.65
2023-05-04T16:22:46.024Z,4.30
2023-05-04T16:25:12.706Z,4.20
2023-05-04T16:27:39.443Z,3.65
2023-05-04T16:30:06.457Z,3.97
2023-05-04T16:32:33.317Z,4.10
2023-05-04T16:34:59.948Z,3.75
2023-05-04T16:37:26.459Z,3.60
2023-05-04T16:39:53.898Z,3.83
2023-05-04T16:42:21.741Z,4.20
2023-05-04T16:44:48.535Z,3.95
2023-05-04T16:47:15.047Z,4.15
2023-05-04T16:49:42.133Z,4.22
2023-05-04T16:52:08.683Z,4.15
2023-05-04T16:54:35.283Z,4.40
2023-05-04T16:57:02.108Z,3.90
2023-05-04T16:59:29.389Z,4.03
2023-05-04T17:01:57.401Z,4.45
2023-05-04T17:04:25.296Z,4.00
2023-05-04T17:06:51.853Z,4.20
2023-05-04T17:09:18.421Z,4.40
2023-05-04T17:11:44.996Z,4.28
2023-05-04T17:14:11.526Z,4.20
2023-05-04T17:16:38.372Z,3.97
2023-05-04T17:19:04.971Z,4.03
2023-05-04T17:21:31.478Z,4.05
2023-05-04T17:23:58.017Z,4.05
2023-05-04T17:26:24.636Z,4.70
2023-05-04T17:28:51.663Z,4.47
2023-05-04T17:31:18.267Z,4.15
2023-05-04T17:33:44.868Z,4.00
2023-05-04T17:36:12.266Z,4.75
2023-05-04T17:38:39.626Z,4.32
2023-05-04T17:41:07.659Z,5.18
2023-05-04T17:43:34.219Z,4.57
2023-05-04T17:46:02.122Z,4.57
2023-05-04T17:48:30.952Z,4.70
2023-05-04T17:50:57.900Z,4.25
2023-05-04T17:53:24.541Z,5.15
2023-05-04T17:55:51.074Z,4.63
2023-05-04T17:58:17.659Z,4.78
2023-05-04T18:00:44.161Z,4.03
2023-05-04T18:03:10.768Z,4.30
2023-05-04T18:05:37.403Z,4.07
2023-05-04T18:08:04.012Z,4.60
2023-05-04T18:10:31.047Z,4.50
2023-05-04T18:13:00.337Z,4.28
2023-05-04T18:15:27.000Z,4.18
2023-05-04T18:17:53.667Z,3.78
2023-05-04T18:20:20.299Z,4.05
2023-05-04T18:22:46.811Z,3.55
2023-05-04T18:25:15.306Z,3.75
2023-05-04T18:27:42.281Z,3.35
2023-05-04T18:30:09.727Z,3.05
2023-05-04T18:32:36.460Z,3.67
2023-05-04T18:35:03.409Z,3.30
2023-05-04T18:37:32.820Z,2.83
2023-05-04T18:39:59.446Z,3.22
2023-05-04T18:42:26.104Z,2.95
2023-05-04T18:44:53.412Z,3.10
2023-05-04T18:47:20.084Z,2.90
2023-05-04T18:49:51.016Z,3.10
2023-05-04T18:52:18.024Z,3.03
2023-05-04T18:54:44.558Z,3.00
2023-05-04T18:57:11.060Z,3.35
2023-05-04T18:59:37.841Z,3.13
2023-05-04T19:02:04.538Z,3.03
2023-05-04T19:04:31.125Z,3.40
2023-05-04T19:06:57.859Z,2.97
2023-05-04T19:09:24.490Z,2.65
2023-05-04T19:11:53.515Z,3.53
2023-05-04T19:14:20.222Z,2.90
2023-05-04T19:16:46.822Z,3.20
2023-05-04T19:19:13.469Z,2.90
2023-05-04T19:21:42.755Z,3.10
2023-05-04T19:24:12.205Z,3.13
2023-05-04T19:26:39.656Z,3.25
2023-05-04T19:29:06.294Z,3.10
2023-05-04T19:31:32.790Z,3.08
2023-05-04T19:33:59.529Z,3.60
2023-05-04T19:36:26.140Z,3.35
2023-05-04T19:39:01.299Z,3.22
2023-05-04T19:41:28.010Z,3.08
2023-05-04T19:43:54.524Z,3.05
2023-05-04T19:46:21.412Z,3.30
2023-05-04T19:48:47.952Z,3.70
2023-05-04T19:51:14.511Z,3.13
2023-05-04T19:53:41.138Z,3.20
2023-05-04T19:56:07.729Z,4.05
2023-05-04T19:58:34.231Z,3.55
2023-05-04T20:01:00.780Z,3.45
2023-05-04T20:03:27.409Z,3.20
2023-05-04T20:05:54.003Z,3.40
2023-05-04T20:08:20.535Z,3.78
2023-05-04T20:10:47.192Z,3.60
2023-05-04T20:13:13.853Z,3.35
2023-05-04T20:15:40.651Z,3.72
2023-05-04T20:18:07.361Z,3.40
2023-05-04T20:20:34.055Z,3.40
2023-05-04T20:23:00.551Z,3.17
2023-05-04T20:25:27.651Z,3.80
2023-05-04T20:27:54.306Z,4.20
2023-05-04T20:30:23.315Z,3.35
2023-05-04T20:32:49.919Z,3.58
2023-05-04T20:35:17.195Z,3.50
2023-05-04T20:37:44.298Z,3.97
2023-05-04T20:40:12.532Z,3.45
2023-05-04T20:42:39.282Z,3.25
2023-05-04T20:45:06.179Z,3.75
2023-05-04T20:47:32.676Z,3.33
2023-05-04T20:49:59.209Z,3.60
2023-05-04T20:52:25.826Z,3.85
2023-05-04T20:54:52.679Z,3.40
2023-05-04T20:57:19.242Z,3.55
2023-05-04T20:59:45.749Z,3.58
2023-05-04T21:02:12.255Z,3.60
2023-05-04T21:04:38.828Z,3.85
2023-05-04T21:07:05.390Z,3.40
2023-05-04T21:09:31.895Z,4.15
2023-05-04T21:11:58.518Z,4.45
2023-05-04T21:14:25.050Z,3.65
2023-05-04T21:16:51.549Z,3.35
2023-05-04T21:19:18.705Z,3.67
2023-05-04T21:21:46.372Z,3.75
2023-05-04T21:24:13.331Z,3.28
2023-05-04T21:26:40.214Z,3.47
2023-05-04T21:29:10.148Z,3.33
2023-05-04T21:31:37.209Z,3.10
2023-05-04T21:34:03.973Z,3.35
2023-05-04T21:36:32.926Z,3.50
2023-05-04T21:38:59.475Z,3.00
2023-05-04T21:41:25.950Z,3.25
2023-05-04T21:43:52.444Z,2.78
2023-05-04T21:46:19.030Z,2.97
2023-05-04T21:48:45.615Z,2.67
2023-05-04T21:51:12.265Z,2.97
2023-05-04T21:53:38.777Z,2.60
2023-05-04T21:56:08.960Z,2.55
2023-05-04T21:58:37.240Z,2.40
2023-05-04T22:01:03.883Z,2.25
2023-05-04T22:03:30.555Z,2.20
2023-05-04T22:06:00.442Z,2.10
2023-05-04T22:08:27.542Z,1.90
2023-05-04T22:10:57.431Z,2.30
2023-05-04T22:13:24.360Z,2.30
2023-05-04T22:15:51.210Z,1.80
2023-05-04T22:18:17.808Z,2.00
2023-05-04T22:20:44.488Z,2.03
2023-05-04T22:23:11.131Z,1.83
2023-05-04T22:25:38.099Z,1.98
2023-05-04T22:28:05.039Z,2.13
2023-05-04T22:30:31.622Z,1.95
2023-05-04T22:32:58.189Z,2.00
2023-05-04T22:35:24.770Z,1.88
2023-05-04T22:37:51.407Z,1.67
2023-05-04T22:40:18.200Z,2.10
2023-05-04T22:42:47.657Z,2.20
2023-05-04T22:45:18.322Z,2.30
2023-05-04T22:47:46.281Z,1.85
2023-05-04T22:50:13.515Z,1.90
2023-05-04T22:52:40.225Z,2.00
2023-05-04T22:55:07.099Z,2.10
2023-05-04T22:57:33.664Z,2.15
2023-05-04T23:00:00.209Z,2.00
2023-05-04T23:02:27.262Z,2.15
2023-05-04T23:04:53.816Z,2.15
2023-05-04T23:07:20.366Z,2.00
2023-05-04T23:09:46.969Z,2.10
2023-05-04T23:12:13.803Z,2.20
2023-05-04T23:14:40.321Z,1.95
2023-05-04T23:17:06.853Z,2.15
2023-05-04T23:19:33.715Z,2.20
2023-05-04T23:22:00.339Z,1.92
2023-05-04T23:24:26.850Z,2.22
2023-05-04T23:26:53.447Z,2.00
2023-05-04T23:29:20.321Z,2.03
2023-05-04T23:31:46.836Z,1.75
2023-05-04T23:34:13.530Z,2.17
2023-05-04T23:36:40.322Z,2.40
2023-05-04T23:39:06.945Z,2.42
2023-05-04T23:41:33.492Z,2.40
2023-05-04T23:44:00.438Z,1.85
2023-05-04T23:46:27.163Z,2.25
2023-05-04T23:48:53.649Z,1.95
2023-05-04T23:51:21.202Z,2.40
2023-05-04T23:53:47.807Z,2.10
2023-05-04T23:56:14.571Z,2.15
2023-05-04T23:58:41.608Z,2.20
